createdAt,value
2022-11-22T00:01:51.364Z,99145.31
2022-11-22T00:04:19.207Z,99146.22
2022-11-22T00:06:47.014Z,99143.56
2022-11-22T00:09:18.934Z,99152.19
2022-11-22T00:11:46.912Z,99100.66
2022-11-22T00:14:14.798Z,99140.69
2022-11-22T00:16:43.282Z,99141.56
2022-11-22T00:19:11.338Z,99140.88
2022-11-22T00:21:39.219Z,99136.47
2022-11-22T00:24:07.686Z,99134.13
2022-11-22T00:26:36.894Z,99135.19
2022-11-22T00:29:04.883Z,99130.06
2022-11-22T00:31:33.331Z,99125.28
2022-11-22T00:34:01.149Z,99118.59
2022-11-22T00:36:28.938Z,99120.03
2022-11-22T00:38:56.905Z,99131.66
2022-11-22T00:41:24.896Z,99120.88
2022-11-22T00:43:54.326Z,99118.25
2022-11-22T00:46:22.214Z,99111.69
2022-11-22T00:48:50.063Z,99118.75
2022-11-22T00:51:20.952Z,99104.78
2022-11-22T00:53:48.888Z,99107.41
2022-11-22T00:56:16.878Z,99088.31
2022-11-22T00:58:44.646Z,99087.75
2022-11-22T01:01:28.791Z,99087.75
2022-11-22T01:03:56.710Z,99082.41
2022-11-22T01:06:24.618Z,99079.94
2022-11-22T01:08:52.758Z,99081.88
2022-11-22T01:11:20.826Z,99046.31
2022-11-22T01:13:49.136Z,99069.28
2022-11-22T01:16:17.529Z,99078.97
2022-11-22T01:18:46.986Z,99075.94
2022-11-22T01:21:14.952Z,99067.41
2022-11-22T01:23:43.151Z,99067.22
2022-11-22T01:26:14.265Z,99076.59
2022-11-22T01:28:42.144Z,99075.13
2022-11-22T01:31:10.521Z,99072.81
2022-11-22T01:33:38.295Z,99067.72
2022-11-22T01:36:07.765Z,99068.91
2022-11-22T01:38:35.639Z,99062.38
2022-11-22T01:41:04.494Z,99036.66
2022-11-22T01:43:32.658Z,99052.75
2022-11-22T01:46:03.359Z,99057.00
2022-11-22T01:48:49.939Z,99042.75
2022-11-22T01:51:25.713Z,99039.56
2022-11-22T01:53:57.210Z,99049.47
2022-11-22T01:56:25.847Z,99031.25
2022-11-22T01:58:59.659Z,99033.19
2022-11-22T02:01:28.788Z,99049.06
2022-11-22T02:04:07.903Z,99045.63
2022-11-22T02:06:49.858Z,99045.94
2022-11-22T02:09:20.643Z,99038.38
2022-11-22T02:11:55.168Z,99038.38
2022-11-22T02:14:25.474Z,99034.84
2022-11-22T02:16:56.486Z,99034.13
2022-11-22T02:19:32.651Z,99025.50
2022-11-22T02:22:08.686Z,99030.75
2022-11-22T02:24:43.520Z,99027.41
2022-11-22T02:27:12.882Z,99030.28
2022-11-22T02:29:41.252Z,99030.44
2022-11-22T02:32:09.164Z,99027.97
2022-11-22T02:34:45.053Z,99027.56
2022-11-22T02:37:20.385Z,99030.75
2022-11-22T02:39:51.440Z,99026.53
2022-11-22T02:42:20.667Z,99023.75
2022-11-22T02:44:48.501Z,99024.94
2022-11-22T02:47:18.971Z,99022.47
2022-11-22T02:49:46.765Z,99019.41
2022-11-22T02:52:18.377Z,99023.66
2022-11-22T02:54:55.060Z,99017.09
2022-11-22T02:57:26.811Z,99022.22
2022-11-22T02:59:54.608Z,99025.53
2022-11-22T03:02:22.503Z,99010.38
2022-11-22T03:04:53.502Z,99004.88
2022-11-22T03:07:21.404Z,99005.41
2022-11-22T03:09:52.394Z,99008.94
2022-11-22T03:12:20.298Z,99002.94
2022-11-22T03:14:49.435Z,99010.06
2022-11-22T03:17:17.432Z,99000.88
2022-11-22T03:19:45.302Z,99000.72
2022-11-22T03:22:13.150Z,99010.38
2022-11-22T03:24:41.157Z,99001.91
2022-11-22T03:27:08.991Z,99004.94
2022-11-22T03:29:37.489Z,99004.09
2022-11-22T03:32:06.848Z,99004.78
2022-11-22T03:34:34.731Z,99003.34
2022-11-22T03:37:02.787Z,98998.38
2022-11-22T03:39:30.762Z,99001.59
2022-11-22T03:42:00.617Z,99003.19
2022-11-22T03:44:28.419Z,98999.84
2022-11-22T03:46:56.404Z,99004.94
2022-11-22T03:49:28.892Z,98999.84
2022-11-22T03:51:56.882Z,98998.97
2022-11-22T03:54:24.842Z,98998.09
2022-11-22T03:56:55.215Z,98993.44
2022-11-22T03:59:26.072Z,98986.75
2022-11-22T04:01:54.072Z,98977.69
2022-11-22T04:04:22.784Z,98986.16
2022-11-22T04:06:52.089Z,98989.66
2022-11-22T04:09:21.805Z,99003.97
2022-11-22T04:11:49.716Z,98996.53
2022-11-22T04:14:35.151Z,98997.56
2022-11-22T04:17:09.278Z,99000.75
2022-11-22T04:19:37.229Z,99007.78
2022-11-22T04:22:05.871Z,99011.31
2022-11-22T04:24:51.202Z,98998.91
2022-11-22T04:27:19.161Z,98999.78
2022-11-22T04:29:47.011Z,98995.56
2022-11-22T04:32:33.876Z,98997.03
2022-11-22T04:35:01.821Z,98999.66
2022-11-22T04:37:51.071Z,99000.53
2022-11-22T04:40:24.940Z,98997.03
2022-11-22T04:43:10.721Z,99007.97
2022-11-22T04:45:38.913Z,99002.28
2022-11-22T04:48:07.475Z,99009.72
2022-11-22T04:50:55.789Z,99001.56
2022-11-22T04:53:25.573Z,99006.69
2022-11-22T04:55:53.874Z,99005.22
2022-11-22T04:58:24.812Z,99011.22
2022-11-22T05:00:55.741Z,99006.56
2022-11-22T05:03:23.646Z,99013.44
2022-11-22T05:05:54.441Z,99005.25
2022-11-22T05:08:24.940Z,99002.09
2022-11-22T05:11:00.061Z,99012.16
2022-11-22T05:13:30.572Z,99014.06
2022-11-22T05:15:59.465Z,98995.91
2022-11-22T05:18:29.969Z,99011.00
2022-11-22T05:21:00.688Z,99010.09
2022-11-22T05:24:01.463Z,99015.94
2022-11-22T05:26:32.570Z,99015.06
2022-11-22T05:29:04.162Z,99008.53
2022-11-22T05:31:35.100Z,99015.94
2022-11-22T05:34:03.262Z,99011.47
2022-11-22T05:36:33.143Z,99013.06
2022-11-22T05:39:01.567Z,99013.81
2022-11-22T05:41:30.846Z,99009.00
2022-11-22T05:43:59.421Z,99018.16
2022-11-22T05:46:31.773Z,99011.75
2022-11-22T05:49:00.721Z,99016.03
2022-11-22T05:51:34.410Z,99014.38
2022-11-22T05:54:02.823Z,99016.72
2022-11-22T05:56:32.059Z,99016.16
2022-11-22T05:58:59.929Z,99002.13
2022-11-22T06:01:30.946Z,99023.19
2022-11-22T06:03:59.106Z,99016.78
2022-11-22T06:06:26.987Z,99013.41
2022-11-22T06:08:54.851Z,99025.25
2022-11-22T06:11:24.527Z,99020.59
2022-11-22T06:13:55.354Z,99030.81
2022-11-22T06:16:23.978Z,99024.56
2022-11-22T06:18:59.248Z,99025.75
2022-11-22T06:21:28.603Z,99024.72
2022-11-22T06:23:56.779Z,99013.91
2022-11-22T06:26:25.932Z,99019.75
2022-11-22T06:28:55.793Z,99021.69
2022-11-22T06:31:26.444Z,99032.31
2022-11-22T06:33:55.219Z,99036.72
2022-11-22T06:36:27.063Z,99043.00
2022-11-22T06:38:55.580Z,99040.53
2022-11-22T06:41:25.676Z,99040.53
2022-11-22T06:43:57.569Z,99034.66
2022-11-22T06:46:27.443Z,99034.66
2022-11-22T06:48:55.484Z,99040.38
2022-11-22T06:51:25.085Z,99046.38
2022-11-22T06:53:56.934Z,99046.66
2022-11-22T06:56:26.899Z,99053.13
2022-11-22T06:59:04.916Z,99055.91
2022-11-22T07:01:38.523Z,99053.28
2022-11-22T07:04:09.421Z,99045.53
2022-11-22T07:06:39.310Z,99048.44
2022-11-22T07:09:09.324Z,99057.50
2022-11-22T07:11:40.861Z,99059.81
2022-11-22T07:14:10.341Z,99066.84
2022-11-22T07:16:39.091Z,99039.50
2022-11-22T07:19:07.916Z,99073.88
2022-11-22T07:21:38.323Z,99074.19
2022-11-22T07:24:08.018Z,99067.75
2022-11-22T07:26:35.963Z,99077.13
2022-11-22T07:29:04.806Z,99088.56
2022-11-22T07:31:34.793Z,99092.34
2022-11-22T07:34:02.847Z,99090.91
2022-11-22T07:36:30.732Z,99085.66
2022-11-22T07:39:04.796Z,99095.31
2022-11-22T07:41:35.451Z,99074.28
2022-11-22T07:44:03.423Z,99062.88
2022-11-22T07:46:38.049Z,99091.25
2022-11-22T07:49:06.173Z,99101.81
2022-11-22T07:51:42.415Z,99100.66
2022-11-22T07:54:12.925Z,99098.75
2022-11-22T07:56:41.267Z,99099.38
2022-11-22T07:59:09.108Z,99095.44
2022-11-22T08:01:41.743Z,99098.38
2022-11-22T08:04:09.713Z,99101.28
2022-11-22T08:06:37.720Z,99099.13
2022-11-22T08:09:08.057Z,99097.66
2022-11-22T08:11:37.077Z,99098.97
2022-11-22T08:14:05.085Z,99106.00
2022-11-22T08:16:32.870Z,99109.09
2022-11-22T08:19:02.331Z,99112.00
2022-11-22T08:21:30.258Z,99118.16
2022-11-22T08:24:00.035Z,99120.94
2022-11-22T08:26:27.885Z,99134.25
2022-11-22T08:28:55.922Z,99118.16
2022-11-22T08:31:23.783Z,99125.63
2022-11-22T08:33:56.748Z,99139.66
2022-11-22T08:36:32.678Z,99145.50
2022-11-22T08:39:00.814Z,99134.81
2022-11-22T08:41:28.806Z,99129.69
2022-11-22T08:43:56.902Z,99126.50
2022-11-22T08:46:24.747Z,99123.72
2022-11-22T08:48:54.181Z,99123.59
2022-11-22T08:51:22.128Z,99128.25
2022-11-22T08:53:51.470Z,99145.81
2022-11-22T08:56:19.305Z,99146.28
2022-11-22T08:58:47.219Z,99138.34
2022-11-22T09:01:17.345Z,99147.00
2022-11-22T09:03:46.369Z,99151.50
2022-11-22T09:09:29.962Z,99152.53
2022-11-22T09:11:54.955Z,99157.22
2022-11-22T09:14:23.705Z,99165.97
2022-11-22T09:16:57.798Z,99169.38
2022-11-22T09:19:25.939Z,99160.13
2022-11-22T09:21:57.029Z,99163.03
2022-11-22T09:24:26.458Z,99170.31
2022-11-22T09:26:54.501Z,99171.63
2022-11-22T09:29:22.695Z,99173.34
2022-11-22T09:31:50.609Z,99175.53
2022-11-22T09:34:25.238Z,99174.75
2022-11-22T09:36:53.466Z,99172.56
2022-11-22T09:39:21.553Z,99179.72
2022-11-22T09:42:22.226Z,99171.06
2022-11-22T09:45:22.527Z,99181.47
2022-11-22T09:48:03.070Z,99176.22
2022-11-22T09:50:45.905Z,99178.56
2022-11-22T09:53:27.574Z,99180.44
2022-11-22T09:56:00.527Z,99158.25
2022-11-22T09:58:32.223Z,99185.41
2022-11-22T10:01:05.445Z,99181.72
2022-11-22T10:03:46.667Z,99184.50
2022-11-22T10:06:20.592Z,99177.03
2022-11-22T10:09:00.080Z,99176.59
2022-11-22T10:11:39.306Z,99169.63
2022-11-22T10:14:25.460Z,99164.88
2022-11-22T10:17:09.151Z,99153.84
2022-11-22T10:19:46.203Z,99139.13
2022-11-22T10:22:15.466Z,99168.63
2022-11-22T10:24:44.293Z,99170.41
2022-11-22T10:27:14.323Z,99160.81
2022-11-22T10:29:45.465Z,99167.13
2022-11-22T10:32:20.892Z,99154.31
2022-11-22T10:35:21.674Z,99164.06
2022-11-22T10:37:58.674Z,99165.66
2022-11-22T10:40:34.466Z,99163.69
2022-11-22T10:46:13.100Z,99158.50
2022-11-22T10:48:50.394Z,99165.22
2022-11-22T10:51:26.190Z,99143.72
2022-11-22T10:54:10.145Z,99133.75
2022-11-22T10:56:47.069Z,99158.44
2022-11-22T10:59:38.719Z,99145.03
2022-11-22T11:02:28.775Z,99147.84
2022-11-22T11:05:01.355Z,99142.28
2022-11-22T11:07:30.082Z,99132.97
2022-11-22T11:10:27.457Z,99131.78
2022-11-22T11:12:53.826Z,99136.66
2022-11-22T11:15:24.287Z,99129.81
2022-11-22T11:17:58.561Z,99124.31
2022-11-22T11:20:31.578Z,99122.84
2022-11-22T11:23:14.316Z,99128.13
2022-11-22T11:25:44.531Z,99130.84
2022-11-22T11:28:21.770Z,99122.75
2022-11-22T11:30:56.269Z,99131.09
2022-11-22T11:33:31.791Z,99123.75
2022-11-22T11:36:07.831Z,99123.00
2022-11-22T11:38:38.266Z,99123.13
2022-11-22T11:41:27.334Z,99120.00
2022-11-22T11:43:58.482Z,99118.63
2022-11-22T11:46:49.102Z,99108.25
2022-11-22T11:49:18.894Z,99108.03
2022-11-22T11:51:59.927Z,99111.38
2022-11-22T11:54:41.361Z,99097.91
2022-11-22T11:57:12.012Z,99123.25
2022-11-22T11:59:45.901Z,99117.53
2022-11-22T12:02:17.041Z,99125.75
2022-11-22T12:04:51.332Z,99124.03
2022-11-22T12:07:24.331Z,99082.72
2022-11-22T12:09:56.996Z,99131.88
2022-11-22T12:12:45.824Z,99152.28
2022-11-22T12:15:22.120Z,99145.66
2022-11-22T12:17:55.960Z,99134.53
2022-11-22T12:20:30.434Z,99134.81
2022-11-22T12:23:18.283Z,99137.06
2022-11-22T12:25:46.889Z,99139.78
2022-11-22T12:28:20.204Z,99148.69
2022-11-22T12:30:53.556Z,99150.59
2022-11-22T12:33:25.850Z,99153.31
2022-11-22T12:35:57.960Z,99150.94
2022-11-22T12:38:33.224Z,99150.06
2022-11-22T12:41:05.000Z,99145.69
2022-11-22T12:43:40.345Z,99144.56
2022-11-22T12:46:13.072Z,99147.81
2022-11-22T12:48:48.938Z,99111.91
2022-11-22T12:51:24.993Z,99137.06
2022-11-22T12:54:01.872Z,99141.06
2022-11-22T12:56:34.010Z,99135.94
2022-11-22T12:59:09.956Z,99136.66
2022-11-22T13:01:44.553Z,99133.91
2022-11-22T13:04:20.367Z,99134.16
2022-11-22T13:07:03.392Z,99140.06
2022-11-22T13:09:59.971Z,99146.16
2022-11-22T13:12:33.337Z,99138.78
2022-11-22T13:15:02.685Z,99138.06
2022-11-22T13:17:35.239Z,99133.78
2022-11-22T13:20:10.488Z,99124.53
2022-11-22T13:22:59.196Z,99122.78
2022-11-22T13:25:54.557Z,99121.78
2022-11-22T13:28:26.796Z,99090.25
2022-11-22T13:31:17.536Z,99121.66
2022-11-22T13:34:01.257Z,99108.78
2022-11-22T13:36:47.766Z,99109.78
2022-11-22T13:39:23.701Z,99105.41
2022-11-22T13:42:08.043Z,99106.41
2022-11-22T13:45:09.085Z,99110.81
2022-11-22T13:47:46.001Z,99115.03
2022-11-22T13:50:52.448Z,99120.94
2022-11-22T13:53:29.808Z,99118.31
2022-11-22T13:56:00.167Z,99095.25
2022-11-22T13:58:55.672Z,99119.81
2022-11-22T14:02:05.313Z,99112.41
2022-11-22T14:04:41.570Z,99110.03
2022-11-22T14:07:34.529Z,99121.78
2022-11-22T14:10:03.931Z,99117.66
2022-11-22T14:12:45.637Z,99117.78
2022-11-22T14:15:26.092Z,99099.91
2022-11-22T14:18:10.602Z,99114.81
2022-11-22T14:20:55.975Z,99118.63
2022-11-22T14:23:35.503Z,99125.91
2022-11-22T14:26:26.909Z,99130.50
2022-11-22T14:29:40.054Z,99132.53
2022-11-22T14:32:23.205Z,99141.53
2022-11-22T14:35:27.914Z,99131.91
2022-11-22T14:38:16.725Z,99138.22
2022-11-22T14:40:44.543Z,99140.50
2022-11-22T14:43:35.520Z,99127.09
2022-11-22T14:49:07.872Z,99157.69
2022-11-22T14:51:36.689Z,99154.19
2022-11-22T14:54:18.784Z,99162.69
2022-11-22T14:56:47.625Z,99158.59
2022-11-22T14:59:39.602Z,99142.81
2022-11-22T15:02:40.136Z,99153.59
2022-11-22T15:09:23.401Z,99154.91
2022-11-22T15:09:23.874Z,99162.06
2022-11-22T15:11:28.361Z,99160.78
2022-11-22T15:14:13.362Z,99158.91
2022-11-22T15:57:29.341Z,99194.00
2022-11-22T15:59:58.163Z,99201.50
2022-11-22T16:02:32.524Z,99186.53
2022-11-22T16:06:08.698Z,99198.78
2022-11-22T16:07:52.580Z,99198.03
2022-11-22T16:10:22.870Z,99202.66
2022-11-22T16:12:52.622Z,99192.25
2022-11-22T16:15:43.067Z,99192.53
2022-11-22T16:18:45.488Z,99196.25
2022-11-22T16:21:29.259Z,99209.22
2022-11-22T16:24:12.615Z,99197.94
2022-11-22T16:26:40.971Z,99200.91
2022-11-22T16:29:29.046Z,99198.44
2022-11-22T16:32:06.741Z,99210.69
2022-11-22T16:34:36.629Z,99176.81
2022-11-22T16:37:26.568Z,99208.16
2022-11-22T16:40:00.493Z,99215.81
2022-11-22T16:42:29.039Z,99223.75
2022-11-22T16:45:04.539Z,99220.50
2022-11-22T16:47:32.837Z,99220.50
2022-11-22T16:50:00.654Z,99219.78
2022-11-22T16:52:28.762Z,99227.84
2022-11-22T16:55:06.998Z,99228.53
2022-11-22T16:57:34.918Z,99230.09
2022-11-22T17:00:05.053Z,99228.72
2022-11-22T17:02:35.871Z,99225.63
2022-11-22T17:05:05.277Z,99232.47
2022-11-22T17:07:39.318Z,99238.00
2022-11-22T17:10:08.400Z,99232.56
2022-11-22T17:12:36.254Z,99243.56
2022-11-22T17:15:17.259Z,99243.81
2022-11-22T17:17:47.871Z,99230.75
2022-11-22T17:20:16.488Z,99206.75
2022-11-22T17:22:53.307Z,99243.81
2022-11-22T17:25:21.181Z,99244.66
2022-11-22T17:27:53.887Z,99243.19
2022-11-22T17:30:23.370Z,99241.69
2022-11-22T17:32:53.205Z,99235.97
2022-11-22T17:35:22.918Z,99243.59
2022-11-22T17:37:56.685Z,99239.50
2022-11-22T17:40:27.018Z,99237.97
2022-11-22T17:42:58.117Z,99240.78
2022-11-22T17:45:31.156Z,99245.75
2022-11-22T17:48:02.018Z,99248.72
2022-11-22T17:50:29.847Z,99240.09
2022-11-22T17:53:03.806Z,99255.94
2022-11-22T17:55:42.594Z,99258.44
2022-11-22T17:58:28.816Z,99266.78
2022-11-22T18:01:08.605Z,99262.69
2022-11-22T18:03:36.937Z,99235.72
2022-11-22T18:06:06.773Z,99251.81
2022-11-22T18:08:35.250Z,99254.31
2022-11-22T18:11:03.926Z,99251.81
2022-11-22T18:13:35.501Z,99255.19
2022-11-22T18:16:12.007Z,99262.69
2022-11-22T18:18:56.228Z,99260.94
2022-11-22T18:21:30.145Z,99251.81
2022-11-22T18:23:58.693Z,99243.06
2022-11-22T18:26:41.057Z,99273.44
2022-11-22T18:29:41.067Z,99269.16
2022-11-22T18:32:00.741Z,99279.13
2022-11-22T18:34:29.758Z,99261.84
2022-11-22T18:37:03.452Z,99266.53
2022-11-22T18:39:33.588Z,99264.03
2022-11-22T18:42:03.766Z,99270.63
2022-11-22T18:44:32.033Z,99274.91
2022-11-22T18:47:05.950Z,99263.91
2022-11-22T18:49:34.213Z,99270.63
2022-11-22T18:52:02.172Z,99267.13
2022-11-22T18:54:30.639Z,99257.44
2022-11-22T18:56:58.977Z,99266.81
2022-11-22T18:59:27.165Z,99263.44
2022-11-22T19:01:55.417Z,99259.34
2022-11-22T19:04:28.029Z,99261.84
2022-11-22T19:06:56.191Z,99266.06
2022-11-22T19:09:24.092Z,99260.34
2022-11-22T19:11:58.264Z,99269.63
2022-11-22T19:14:29.921Z,99267.84
2022-11-22T19:17:07.491Z,99261.28
2022-11-22T19:19:37.027Z,99265.94
2022-11-22T19:22:05.137Z,99264.94
2022-11-22T19:24:35.678Z,99264.03
2022-11-22T19:27:03.688Z,99261.41
2022-11-22T19:29:31.878Z,99258.91
2022-11-22T19:32:00.048Z,99266.28
2022-11-22T19:34:54.644Z,99259.81
2022-11-22T19:37:22.551Z,99254.22
2022-11-22T19:39:50.483Z,99251.09
2022-11-22T19:42:20.228Z,99259.63
2022-11-22T19:44:54.070Z,99258.91
2022-11-22T19:47:25.759Z,99265.22
2022-11-22T19:49:58.074Z,99262.56
2022-11-22T19:52:25.904Z,99256.72
2022-11-22T19:54:53.693Z,99266.53
2022-11-22T19:57:25.061Z,99260.41
2022-11-22T20:00:00.560Z,99259.25
2022-11-22T20:02:30.981Z,99263.69
2022-11-22T20:05:00.274Z,99261.66
2022-11-22T20:07:30.498Z,99273.41
2022-11-22T20:09:58.954Z,99270.16
2022-11-22T20:12:27.975Z,99272.19
2022-11-22T20:14:55.773Z,99268.06
2022-11-22T20:17:23.595Z,99275.56
2022-11-22T20:19:51.510Z,99269.56
2022-11-22T20:22:20.684Z,99236.06
2022-11-22T20:24:48.542Z,99270.16
2022-11-22T20:27:24.386Z,99273.94
2022-11-22T20:29:52.621Z,99279.63
2022-11-22T20:32:20.594Z,99282.53
2022-11-22T20:34:54.474Z,99284.44
2022-11-22T20:37:23.973Z,99280.63
2022-11-22T20:39:53.786Z,99284.13
2022-11-22T20:42:36.943Z,99277.41
2022-11-22T20:45:08.881Z,99285.03
2022-11-22T20:47:36.947Z,99281.78
2022-11-22T20:50:09.062Z,99265.06
2022-11-22T20:52:38.326Z,99284.44
2022-11-22T20:55:10.472Z,99276.19
2022-11-22T20:57:39.043Z,99279.69
2022-11-22T21:00:07.867Z,99266.94
2022-11-22T21:02:36.955Z,99270.97
2022-11-22T21:05:16.880Z,99271.16
2022-11-22T21:07:46.049Z,99274.63
2022-11-22T21:10:13.863Z,99284.63
2022-11-22T21:12:41.670Z,99287.28
2022-11-22T21:15:10.358Z,99286.50
2022-11-22T21:17:55.594Z,99280.81
2022-11-22T21:20:31.844Z,99273.31
2022-11-22T21:23:09.782Z,99273.44
2022-11-22T21:25:38.033Z,99276.06
2022-11-22T21:28:06.109Z,99278.09
2022-11-22T21:30:37.469Z,99285.13
2022-11-22T21:33:11.226Z,99279.38
2022-11-22T21:35:39.644Z,99277.16
2022-11-22T21:38:09.001Z,99276.94
2022-11-22T21:40:37.057Z,99287.34
2022-11-22T21:43:04.895Z,99280.00
2022-11-22T21:45:32.906Z,99284.66
2022-11-22T21:48:01.144Z,99291.66
2022-11-22T21:50:29.708Z,99289.28
2022-11-22T21:52:57.690Z,99290.31
2022-11-22T21:55:27.096Z,99290.56
2022-11-22T21:57:55.073Z,99287.47
2022-11-22T22:00:23.921Z,99291.09
2022-11-22T22:02:51.837Z,99298.13
2022-11-22T22:05:20.079Z,99305.16
2022-11-22T22:07:53.112Z,99295.63
2022-11-22T22:10:21.434Z,99295.03
2022-11-22T22:13:16.170Z,99297.06
2022-11-22T22:15:44.172Z,99308.06
2022-11-22T22:18:12.720Z,99299.81
2022-11-22T22:20:40.918Z,99298.06
2022-11-22T22:23:12.129Z,99299.94
2022-11-22T22:25:41.551Z,99302.44
2022-11-22T22:28:09.440Z,99300.81
2022-11-22T22:30:39.528Z,99305.06
2022-11-22T22:33:07.488Z,99292.91
2022-11-22T22:35:35.969Z,99306.97
2022-11-22T22:38:06.922Z,99298.75
2022-11-22T22:40:37.666Z,99312.09
2022-11-22T22:43:05.729Z,99323.72
2022-11-22T22:45:36.126Z,99315.47
2022-11-22T22:48:05.680Z,99320.47
2022-11-22T22:50:37.612Z,99326.47
2022-11-22T22:53:05.646Z,99315.59
2022-11-22T22:55:33.741Z,99289.69
2022-11-22T22:58:03.762Z,99315.41
2022-11-22T23:00:31.919Z,99312.50
2022-11-22T23:02:59.994Z,99317.16
2022-11-22T23:05:31.890Z,99317.75
2022-11-22T23:08:02.864Z,99325.00
2022-11-22T23:10:55.975Z,99315.00
2022-11-22T23:13:25.596Z,99323.03
2022-11-22T23:15:59.090Z,99320.06
2022-11-22T23:18:30.134Z,99316.19
2022-11-22T23:21:07.064Z,99312.34
2022-11-22T23:23:38.174Z,99286.25
2022-11-22T23:26:09.233Z,99284.66
2022-11-22T23:28:37.356Z,99315.84
2022-11-22T23:31:06.975Z,99316.44
2022-11-22T23:33:45.080Z,99320.78
2022-11-22T23:36:16.354Z,99319.78
2022-11-22T23:38:45.082Z,99319.28
2022-11-22T23:41:17.256Z,99320.91
2022-11-22T23:43:45.281Z,99317.56
2022-11-22T23:46:16.175Z,99320.78
2022-11-22T23:48:48.665Z,99331.81
2022-11-22T23:51:18.005Z,99329.44
2022-11-22T23:53:46.021Z,99325.19
2022-11-22T23:56:20.451Z,99323.56
2022-11-22T23:58:50.267Z,99324.56
